sensor_id;sensor_type;location;lat;lon;timestamp;temperature;humidity
48936;DHT22;34745;52.276;10.528;2022-07-29T00:02:24;17.40;1.00
48936;DHT22;34745;52.276;10.528;2022-07-29T00:04:52;17.50;1.00
48936;DHT22;34745;52.276;10.528;2022-07-29T00:07:19;17.50;1.00
48936;DHT22;34745;52.276;10.528;2022-07-29T00:09:46;17.50;1.00
48936;DHT22;34745;52.276;10.528;2022-07-29T00:12:17;17.40;1.00
48936;DHT22;34745;52.276;10.528;2022-07-29T00:14:55;17.40;1.00
48936;DHT22;34745;52.276;10.528;2022-07-29T00:17:22;17.40;1.00
48936;DHT22;34745;52.276;10.528;2022-07-29T00:19:49;17.40;1.00
48936;DHT22;34745;52.276;10.528;2022-07-29T00:22:16;17.40;1.00
48936;DHT22;34745;52.276;10.528;2022-07-29T00:24:43;17.30;1.00
48936;DHT22;34745;52.276;10.528;2022-07-29T00:27:10;17.30;1.00
48936;DHT22;34745;52.276;10.528;2022-07-29T00:29:37;17.30;1.00
48936;DHT22;34745;52.276;10.528;2022-07-29T00:32:06;17.30;1.00
48936;DHT22;34745;52.276;10.528;2022-07-29T00:34:33;17.20;1.00
48936;DHT22;34745;52.276;10.528;2022-07-29T00:37:19;17.30;1.00
48936;DHT22;34745;52.276;10.528;2022-07-29T00:39:45;17.30;1.00
48936;DHT22;34745;52.276;10.528;2022-07-29T00:42:13;17.40;1.00
48936;DHT22;34745;52.276;10.528;2022-07-29T00:44:41;17.40;1.00
48936;DHT22;34745;52.276;10.528;2022-07-29T00:47:11;17.50;1.00
48936;DHT22;34745;52.276;10.528;2022-07-29T00:49:39;17.50;1.00
48936;DHT22;34745;52.276;10.528;2022-07-29T00:52:08;17.50;1.00
48936;DHT22;34745;52.276;10.528;2022-07-29T00:54:38;17.40;1.00
48936;DHT22;34745;52.276;10.528;2022-07-29T00:57:11;17.40;1.00
48936;DHT22;34745;52.276;10.528;2022-07-29T00:59:39;17.30;1.00
48936;DHT22;34745;52.276;10.528;2022-07-29T01:02:06;17.30;1.00
48936;DHT22;34745;52.276;10.528;2022-07-29T01:04:35;17.30;1.00
48936;DHT22;34745;52.276;10.528;2022-07-29T01:07:03;17.20;1.00
48936;DHT22;34745;52.276;10.528;2022-07-29T01:09:31;17.20;1.00
48936;DHT22;34745;52.276;10.528;2022-07-29T01:12:13;17.20;1.00
48936;DHT22;34745;52.276;10.528;2022-07-29T01:14:41;17.20;1.00
48936;DHT22;34745;52.276;10.528;2022-07-29T01:17:13;17.20;1.00
48936;DHT22;34745;52.276;10.528;2022-07-29T01:19:51;17.20;1.00
48936;DHT22;34745;52.276;10.528;2022-07-29T01:22:28;17.20;1.00
48936;DHT22;34745;52.276;10.528;2022-07-29T01:25:10;17.20;1.00
48936;DHT22;34745;52.276;10.528;2022-07-29T01:27:51;17.10;1.00
48936;DHT22;34745;52.276;10.528;2022-07-29T01:30:29;17.10;1.00
48936;DHT22;34745;52.276;10.528;2022-07-29T01:33:02;17.10;1.00
48936;DHT22;34745;52.276;10.528;2022-07-29T01:35:35;17.10;1.00
48936;DHT22;34745;52.276;10.528;2022-07-29T01:38:08;17.10;1.00
48936;DHT22;34745;52.276;10.528;2022-07-29T01:40:41;17.10;1.00
48936;DHT22;34745;52.276;10.528;2022-07-29T01:43:12;17.10;1.00
48936;DHT22;34745;52.276;10.528;2022-07-29T01:45:45;17.10;1.00
48936;DHT22;34745;52.276;10.528;2022-07-29T01:48:16;17.10;1.00
48936;DHT22;34745;52.276;10.528;2022-07-29T01:50:48;17.10;1.00
48936;DHT22;34745;52.276;10.528;2022-07-29T01:53:24;17.10;1.00
48936;DHT22;34745;52.276;10.528;2022-07-29T01:55:53;17.20;1.00
48936;DHT22;34745;52.276;10.528;2022-07-29T01:58:24;17.10;1.00
48936;DHT22;34745;52.276;10.528;2022-07-29T02:00:53;17.10;1.00
48936;DHT22;34745;52.276;10.528;2022-07-29T02:03:23;17.20;1.00
48936;DHT22;34745;52.276;10.528;2022-07-29T02:05:52;17.10;1.00
48936;DHT22;34745;52.276;10.528;2022-07-29T02:08:20;17.10;1.00
48936;DHT22;34745;52.276;10.528;2022-07-29T02:10:48;17.10;1.00
48936;DHT22;34745;52.276;10.528;2022-07-29T02:13:17;17.00;1.00
48936;DHT22;34745;52.276;10.528;2022-07-29T02:15:46;17.10;1.00
48936;DHT22;34745;52.276;10.528;2022-07-29T02:18:17;17.00;1.00
48936;DHT22;34745;52.276;10.528;2022-07-29T02:20:48;17.00;1.00
48936;DHT22;34745;52.276;10.528;2022-07-29T02:23:18;17.00;1.00
48936;DHT22;34745;52.276;10.528;2022-07-29T02:25:48;17.00;1.00
48936;DHT22;34745;52.276;10.528;2022-07-29T02:28:17;17.00;1.00
48936;DHT22;34745;52.276;10.528;2022-07-29T02:30:46;16.90;1.00
48936;DHT22;34745;52.276;10.528;2022-07-29T02:33:17;16.90;1.00
48936;DHT22;34745;52.276;10.528;2022-07-29T02:35:46;16.90;1.00
48936;DHT22;34745;52.276;10.528;2022-07-29T02:38:15;16.90;1.00
48936;DHT22;34745;52.276;10.528;2022-07-29T02:41:04;16.90;1.00
48936;DHT22;34745;52.276;10.528;2022-07-29T02:43:33;17.40;1.00
48936;DHT22;34745;52.276;10.528;2022-07-29T02:46:03;16.80;1.00
48936;DHT22;34745;52.276;10.528;2022-07-29T02:48:44;16.90;1.00
48936;DHT22;34745;52.276;10.528;2022-07-29T02:51:19;16.90;1.00
48936;DHT22;34745;52.276;10.528;2022-07-29T02:54:11;16.90;1.00
48936;DHT22;34745;52.276;10.528;2022-07-29T02:56:44;16.90;1.00
48936;DHT22;34745;52.276;10.528;2022-07-29T02:59:15;16.90;1.00
48936;DHT22;34745;52.276;10.528;2022-07-29T03:01:45;16.90;1.00
48936;DHT22;34745;52.276;10.528;2022-07-29T03:04:15;16.90;1.00
48936;DHT22;34745;52.276;10.528;2022-07-29T03:06:44;17.00;1.00
48936;DHT22;34745;52.276;10.528;2022-07-29T03:09:13;17.00;1.00
48936;DHT22;34745;52.276;10.528;2022-07-29T03:11:42;17.00;1.00
48936;DHT22;34745;52.276;10.528;2022-07-29T03:14:17;17.00;1.00
48936;DHT22;34745;52.276;10.528;2022-07-29T03:16:46;17.00;1.00
48936;DHT22;34745;52.276;10.528;2022-07-29T03:19:15;16.90;1.00
48936;DHT22;34745;52.276;10.528;2022-07-29T03:21:43;16.90;1.00
48936;DHT22;34745;52.276;10.528;2022-07-29T03:24:10;17.00;1.00
48936;DHT22;34745;52.276;10.528;2022-07-29T03:26:37;16.90;1.00
48936;DHT22;34745;52.276;10.528;2022-07-29T03:29:04;16.90;1.00
48936;DHT22;34745;52.276;10.528;2022-07-29T03:31:31;16.90;1.00
48936;DHT22;34745;52.276;10.528;2022-07-29T03:33:59;16.90;1.00
48936;DHT22;34745;52.276;10.528;2022-07-29T03:36:27;16.80;1.00
48936;DHT22;34745;52.276;10.528;2022-07-29T03:38:54;16.80;1.00
48936;DHT22;34745;52.276;10.528;2022-07-29T03:41:23;16.80;1.00
48936;DHT22;34745;52.276;10.528;2022-07-29T03:43:51;16.80;1.00
48936;DHT22;34745;52.276;10.528;2022-07-29T03:46:22;16.80;1.00
48936;DHT22;34745;52.276;10.528;2022-07-29T03:48:52;16.80;1.00
48936;DHT22;34745;52.276;10.528;2022-07-29T03:51:20;16.80;1.00
48936;DHT22;34745;52.276;10.528;2022-07-29T03:54:01;16.80;1.00
48936;DHT22;34745;52.276;10.528;2022-07-29T03:56:38;16.70;1.00
48936;DHT22;34745;52.276;10.528;2022-07-29T03:59:07;16.70;1.00
48936;DHT22;34745;52.276;10.528;2022-07-29T04:01:35;16.70;1.00
48936;DHT22;34745;52.276;10.528;2022-07-29T04:04:02;16.70;1.00
48936;DHT22;34745;52.276;10.528;2022-07-29T04:06:38;16.70;1.00
48936;DHT22;34745;52.276;10.528;2022-07-29T04:09:07;16.80;1.00
48936;DHT22;34745;52.276;10.528;2022-07-29T04:11:36;16.80;1.00
48936;DHT22;34745;52.276;10.528;2022-07-29T04:14:23;16.80;1.00
48936;DHT22;34745;52.276;10.528;2022-07-29T04:16:50;16.80;1.00
48936;DHT22;34745;52.276;10.528;2022-07-29T04:19:17;16.80;1.00
48936;DHT22;34745;52.276;10.528;2022-07-29T04:21:44;16.80;1.00
48936;DHT22;34745;52.276;10.528;2022-07-29T04:24:13;16.80;1.00
48936;DHT22;34745;52.276;10.528;2022-07-29T04:26:42;16.80;1.00
48936;DHT22;34745;52.276;10.528;2022-07-29T04:29:09;16.80;1.00
48936;DHT22;34745;52.276;10.528;2022-07-29T04:31:36;16.80;1.00
48936;DHT22;34745;52.276;10.528;2022-07-29T04:34:03;16.80;1.00
48936;DHT22;34745;52.276;10.528;2022-07-29T04:36:30;16.80;1.00
48936;DHT22;34745;52.276;10.528;2022-07-29T04:38:57;16.80;1.00
48936;DHT22;34745;52.276;10.528;2022-07-29T04:41:26;16.80;1.00
48936;DHT22;34745;52.276;10.528;2022-07-29T04:43:59;16.90;1.00
48936;DHT22;34745;52.276;10.528;2022-07-29T04:46:27;16.90;1.00
48936;DHT22;34745;52.276;10.528;2022-07-29T04:48:54;17.00;1.00
48936;DHT22;34745;52.276;10.528;2022-07-29T04:51:22;17.00;1.00
48936;DHT22;34745;52.276;10.528;2022-07-29T04:53:49;17.10;1.00
48936;DHT22;34745;52.276;10.528;2022-07-29T04:56:16;17.10;1.00
48936;DHT22;34745;52.276;10.528;2022-07-29T04:58:44;17.00;1.00
48936;DHT22;34745;52.276;10.528;2022-07-29T05:01:11;17.00;1.00
48936;DHT22;34745;52.276;10.528;2022-07-29T05:03:38;17.00;1.00
48936;DHT22;34745;52.276;10.528;2022-07-29T05:06:05;17.00;1.00
48936;DHT22;34745;52.276;10.528;2022-07-29T05:08:32;17.00;1.00
48936;DHT22;34745;52.276;10.528;2022-07-29T05:10:59;17.00;1.00
48936;DHT22;34745;52.276;10.528;2022-07-29T05:13:38;17.00;1.00
48936;DHT22;34745;52.276;10.528;2022-07-29T05:16:14;16.90;1.00
48936;DHT22;34745;52.276;10.528;2022-07-29T05:18:41;16.90;1.00
48936;DHT22;34745;52.276;10.528;2022-07-29T05:21:09;16.90;1.00
48936;DHT22;34745;52.276;10.528;2022-07-29T05:23:36;17.00;1.00
48936;DHT22;34745;52.276;10.528;2022-07-29T05:26:02;17.00;1.00
48936;DHT22;34745;52.276;10.528;2022-07-29T05:28:33;17.00;1.00
48936;DHT22;34745;52.276;10.528;2022-07-29T05:30:59;17.10;1.00
48936;DHT22;34745;52.276;10.528;2022-07-29T05:33:28;17.20;1.00
48936;DHT22;34745;52.276;10.528;2022-07-29T05:36:02;17.30;1.00
48936;DHT22;34745;52.276;10.528;2022-07-29T05:38:32;17.40;1.00
48936;DHT22;34745;52.276;10.528;2022-07-29T05:40:59;17.40;1.00
48936;DHT22;34745;52.276;10.528;2022-07-29T05:43:26;17.50;1.00
48936;DHT22;34745;52.276;10.528;2022-07-29T05:45:53;17.50;1.00
48936;DHT22;34745;52.276;10.528;2022-07-29T05:48:20;17.40;1.00
48936;DHT22;34745;52.276;10.528;2022-07-29T05:50:49;17.40;1.00
48936;DHT22;34745;52.276;10.528;2022-07-29T05:53:16;17.60;1.00
48936;DHT22;34745;52.276;10.528;2022-07-29T05:55:46;17.50;1.00
48936;DHT22;34745;52.276;10.528;2022-07-29T05:58:13;17.60;1.00
48936;DHT22;34745;52.276;10.528;2022-07-29T06:00:40;17.60;1.00
48936;DHT22;34745;52.276;10.528;2022-07-29T06:03:07;17.70;1.00
48936;DHT22;34745;52.276;10.528;2022-07-29T06:05:34;17.80;1.00
48936;DHT22;34745;52.276;10.528;2022-07-29T06:08:03;17.80;1.00
48936;DHT22;34745;52.276;10.528;2022-07-29T06:10:34;17.90;1.00
48936;DHT22;34745;52.276;10.528;2022-07-29T06:13:01;18.00;1.00
48936;DHT22;34745;52.276;10.528;2022-07-29T06:18:07;18.00;1.00
48936;DHT22;34745;52.276;10.528;2022-07-29T06:20:36;18.10;1.00
48936;DHT22;34745;52.276;10.528;2022-07-29T06:23:05;18.00;1.00
48936;DHT22;34745;52.276;10.528;2022-07-29T06:25:33;18.00;1.00
48936;DHT22;34745;52.276;10.528;2022-07-29T06:28:02;18.10;1.00
48936;DHT22;34745;52.276;10.528;2022-07-29T06:30:29;18.20;1.00
48936;DHT22;34745;52.276;10.528;2022-07-29T06:32:56;18.30;1.00
48936;DHT22;34745;52.276;10.528;2022-07-29T06:35:23;18.30;1.00
48936;DHT22;34745;52.276;10.528;2022-07-29T06:38:09;18.30;1.00
48936;DHT22;34745;52.276;10.528;2022-07-29T06:40:57;18.30;1.00
48936;DHT22;34745;52.276;10.528;2022-07-29T06:43:28;18.40;1.00
48936;DHT22;34745;52.276;10.528;2022-07-29T06:45:59;18.40;1.00
48936;DHT22;34745;52.276;10.528;2022-07-29T06:48:26;18.50;1.00
48936;DHT22;34745;52.276;10.528;2022-07-29T06:50:53;18.40;1.00
48936;DHT22;34745;52.276;10.528;2022-07-29T06:53:22;18.50;1.00
48936;DHT22;34745;52.276;10.528;2022-07-29T06:55:49;18.50;1.00
48936;DHT22;34745;52.276;10.528;2022-07-29T06:58:17;18.50;1.00
48936;DHT22;34745;52.276;10.528;2022-07-29T07:00:47;18.50;1.00
48936;DHT22;34745;52.276;10.528;2022-07-29T07:03:15;18.60;1.00
48936;DHT22;34745;52.276;10.528;2022-07-29T07:05:43;18.70;1.00
48936;DHT22;34745;52.276;10.528;2022-07-29T07:08:10;18.80;1.00
48936;DHT22;34745;52.276;10.528;2022-07-29T07:10:39;18.80;1.00
48936;DHT22;34745;52.276;10.528;2022-07-29T07:13:06;19.00;1.00
48936;DHT22;34745;52.276;10.528;2022-07-29T07:15:35;19.00;1.00
48936;DHT22;34745;52.276;10.528;2022-07-29T07:18:06;19.20;1.00
48936;DHT22;34745;52.276;10.528;2022-07-29T07:20:33;19.20;1.00
48936;DHT22;34745;52.276;10.528;2022-07-29T07:23:00;19.30;1.00
48936;DHT22;34745;52.276;10.528;2022-07-29T07:25:27;19.30;1.00
48936;DHT22;34745;52.276;10.528;2022-07-29T07:27:56;19.40;1.00
48936;DHT22;34745;52.276;10.528;2022-07-29T07:30:23;19.50;1.00
48936;DHT22;34745;52.276;10.528;2022-07-29T07:32:50;19.50;1.00
48936;DHT22;34745;52.276;10.528;2022-07-29T07:35:17;19.50;1.00
48936;DHT22;34745;52.276;10.528;2022-07-29T07:37:44;19.50;1.00
48936;DHT22;34745;52.276;10.528;2022-07-29T07:40:12;19.50;1.00
48936;DHT22;34745;52.276;10.528;2022-07-29T07:42:44;19.60;1.00
48936;DHT22;34745;52.276;10.528;2022-07-29T07:45:13;19.90;1.00
48936;DHT22;34745;52.276;10.528;2022-07-29T07:47:42;20.00;1.00
48936;DHT22;34745;52.276;10.528;2022-07-29T07:50:11;20.20;1.00
48936;DHT22;34745;52.276;10.528;2022-07-29T07:52:49;20.30;1.00
48936;DHT22;34745;52.276;10.528;2022-07-29T07:55:16;20.50;1.00
48936;DHT22;34745;52.276;10.528;2022-07-29T07:57:43;20.60;1.00
48936;DHT22;34745;52.276;10.528;2022-07-29T08:00:14;20.80;1.00
48936;DHT22;34745;52.276;10.528;2022-07-29T08:02:41;20.80;1.00
48936;DHT22;34745;52.276;10.528;2022-07-29T08:05:10;20.80;1.00
48936;DHT22;34745;52.276;10.528;2022-07-29T08:07:38;20.70;1.00
48936;DHT22;34745;52.276;10.528;2022-07-29T08:10:06;20.70;1.00
48936;DHT22;34745;52.276;10.528;2022-07-29T08:12:33;20.70;1.00
48936;DHT22;34745;52.276;10.528;2022-07-29T08:15:00;20.70;1.00
48936;DHT22;34745;52.276;10.528;2022-07-29T08:17:29;20.80;1.00
48936;DHT22;34745;52.276;10.528;2022-07-29T08:20:01;20.80;1.00
48936;DHT22;34745;52.276;10.528;2022-07-29T08:22:28;20.90;1.00
48936;DHT22;34745;52.276;10.528;2022-07-29T08:24:55;20.90;1.00
48936;DHT22;34745;52.276;10.528;2022-07-29T08:27:23;20.90;1.00
48936;DHT22;34745;52.276;10.528;2022-07-29T08:30:10;20.90;1.00
48936;DHT22;34745;52.276;10.528;2022-07-29T08:32:38;21.10;1.00
48936;DHT22;34745;52.276;10.528;2022-07-29T08:35:23;21.10;1.00
48936;DHT22;34745;52.276;10.528;2022-07-29T08:37:50;21.20;1.00
48936;DHT22;34745;52.276;10.528;2022-07-29T08:40:17;21.30;1.00
48936;DHT22;34745;52.276;10.528;2022-07-29T08:42:44;21.30;1.00
48936;DHT22;34745;52.276;10.528;2022-07-29T08:45:12;21.40;1.00
48936;DHT22;34745;52.276;10.528;2022-07-29T08:47:40;21.60;1.40
48936;DHT22;34745;52.276;10.528;2022-07-29T08:50:08;21.80;99.90
48936;DHT22;34745;52.276;10.528;2022-07-29T08:52:37;21.80;99.90
48936;DHT22;34745;52.276;10.528;2022-07-29T08:55:06;22.00;99.90
48936;DHT22;34745;52.276;10.528;2022-07-29T08:57:35;22.10;99.90
48936;DHT22;34745;52.276;10.528;2022-07-29T09:00:05;22.10;99.90
48936;DHT22;34745;52.276;10.528;2022-07-29T09:02:41;22.10;99.90
48936;DHT22;34745;52.276;10.528;2022-07-29T09:05:13;22.10;99.90
48936;DHT22;34745;52.276;10.528;2022-07-29T09:07:40;22.20;99.90
48936;DHT22;34745;52.276;10.528;2022-07-29T09:10:10;22.20;99.90
48936;DHT22;34745;52.276;10.528;2022-07-29T09:12:37;22.10;99.90
48936;DHT22;34745;52.276;10.528;2022-07-29T09:15:05;22.10;99.90
48936;DHT22;34745;52.276;10.528;2022-07-29T09:17:44;22.10;99.90
48936;DHT22;34745;52.276;10.528;2022-07-29T09:20:14;22.20;99.90
48936;DHT22;34745;52.276;10.528;2022-07-29T09:22:41;22.40;99.90
48936;DHT22;34745;52.276;10.528;2022-07-29T09:25:11;22.40;99.90
48936;DHT22;34745;52.276;10.528;2022-07-29T09:27:38;22.50;99.90
48936;DHT22;34745;52.276;10.528;2022-07-29T09:30:07;22.60;99.90
48936;DHT22;34745;52.276;10.528;2022-07-29T09:32:56;22.50;99.90
48936;DHT22;34745;52.276;10.528;2022-07-29T09:35:25;22.50;99.90
48936;DHT22;34745;52.276;10.528;2022-07-29T09:37:53;22.50;99.90
48936;DHT22;34745;52.276;10.528;2022-07-29T09:40:23;22.50;99.90
48936;DHT22;34745;52.276;10.528;2022-07-29T09:42:51;22.60;99.90
48936;DHT22;34745;52.276;10.528;2022-07-29T09:45:28;22.80;99.90
48936;DHT22;34745;52.276;10.528;2022-07-29T09:47:57;22.90;99.90
48936;DHT22;34745;52.276;10.528;2022-07-29T09:50:37;22.90;99.90
48936;DHT22;34745;52.276;10.528;2022-07-29T09:53:05;23.00;99.90
48936;DHT22;34745;52.276;10.528;2022-07-29T09:55:32;23.20;99.90
48936;DHT22;34745;52.276;10.528;2022-07-29T09:58:24;23.20;99.90
48936;DHT22;34745;52.276;10.528;2022-07-29T10:00:52;23.30;99.90
48936;DHT22;34745;52.276;10.528;2022-07-29T10:03:22;23.50;99.90
48936;DHT22;34745;52.276;10.528;2022-07-29T10:06:05;23.60;99.90
48936;DHT22;34745;52.276;10.528;2022-07-29T10:08:33;23.70;99.90
48936;DHT22;34745;52.276;10.528;2022-07-29T10:11:10;23.70;99.90
48936;DHT22;34745;52.276;10.528;2022-07-29T10:13:39;23.90;99.90
48936;DHT22;34745;52.276;10.528;2022-07-29T10:16:08;23.80;1.00
48936;DHT22;34745;52.276;10.528;2022-07-29T10:18:39;23.70;99.90
48936;DHT22;34745;52.276;10.528;2022-07-29T10:21:07;23.50;1.00
48936;DHT22;34745;52.276;10.528;2022-07-29T10:23:59;23.30;1.00
48936;DHT22;34745;52.276;10.528;2022-07-29T10:26:29;23.20;99.90
48936;DHT22;34745;52.276;10.528;2022-07-29T10:28:58;23.10;99.90
48936;DHT22;34745;52.276;10.528;2022-07-29T10:31:31;23.10;1.00
48936;DHT22;34745;52.276;10.528;2022-07-29T10:34:13;23.10;1.00
48936;DHT22;34745;52.276;10.528;2022-07-29T10:36:52;23.10;1.00
48936;DHT22;34745;52.276;10.528;2022-07-29T10:39:33;22.90;1.00
48936;DHT22;34745;52.276;10.528;2022-07-29T10:42:18;22.90;1.40
48936;DHT22;34745;52.276;10.528;2022-07-29T10:45:02;23.00;1.00
48936;DHT22;34745;52.276;10.528;2022-07-29T10:47:32;23.00;1.00
48936;DHT22;34745;52.276;10.528;2022-07-29T10:50:09;23.00;1.00
48936;DHT22;34745;52.276;10.528;2022-07-29T10:52:53;23.10;1.40
48936;DHT22;34745;52.276;10.528;2022-07-29T10:55:34;23.10;1.00
48936;DHT22;34745;52.276;10.528;2022-07-29T10:58:14;23.10;1.00
48936;DHT22;34745;52.276;10.528;2022-07-29T11:00:44;23.10;1.00
48936;DHT22;34745;52.276;10.528;2022-07-29T11:03:43;23.10;1.00
48936;DHT22;34745;52.276;10.528;2022-07-29T11:06:17;23.10;1.00
48936;DHT22;34745;52.276;10.528;2022-07-29T11:09:17;23.10;99.90
48936;DHT22;34745;52.276;10.528;2022-07-29T11:12:05;23.20;1.00
48936;DHT22;34745;52.276;10.528;2022-07-29T11:14:57;23.20;1.00
48936;DHT22;34745;52.276;10.528;2022-07-29T11:17:25;23.20;1.40
48936;DHT22;34745;52.276;10.528;2022-07-29T11:20:30;23.30;99.90
48936;DHT22;34745;52.276;10.528;2022-07-29T11:22:58;23.30;99.90
48936;DHT22;34745;52.276;10.528;2022-07-29T11:25:25;23.40;1.00
48936;DHT22;34745;52.276;10.528;2022-07-29T11:28:16;23.40;1.00
48936;DHT22;34745;52.276;10.528;2022-07-29T11:30:53;23.50;1.40
48936;DHT22;34745;52.276;10.528;2022-07-29T11:33:28;23.50;99.90
48936;DHT22;34745;52.276;10.528;2022-07-29T11:36:15;23.50;1.40
48936;DHT22;34745;52.276;10.528;2022-07-29T11:38:43;23.60;1.40
48936;DHT22;34745;52.276;10.528;2022-07-29T11:41:28;23.60;99.90
48936;DHT22;34745;52.276;10.528;2022-07-29T11:43:59;23.60;99.90
48936;DHT22;34745;52.276;10.528;2022-07-29T11:46:46;23.60;1.40
48936;DHT22;34745;52.276;10.528;2022-07-29T11:49:19;23.60;1.00
48936;DHT22;34745;52.276;10.528;2022-07-29T11:51:50;23.60;99.90
48936;DHT22;34745;52.276;10.528;2022-07-29T11:54:23;23.60;1.00
48936;DHT22;34745;52.276;10.528;2022-07-29T11:56:53;23.60;99.90
48936;DHT22;34745;52.276;10.528;2022-07-29T11:59:21;23.60;99.90
48936;DHT22;34745;52.276;10.528;2022-07-29T12:02:00;23.60;1.00
48936;DHT22;34745;52.276;10.528;2022-07-29T12:04:51;23.70;99.90
48936;DHT22;34745;52.276;10.528;2022-07-29T12:07:18;23.70;99.90
48936;DHT22;34745;52.276;10.528;2022-07-29T12:09:49;23.70;1.40
48936;DHT22;34745;52.276;10.528;2022-07-29T12:12:23;23.80;1.00
48936;DHT22;34745;52.276;10.528;2022-07-29T12:14:50;23.80;99.90
48936;DHT22;34745;52.276;10.528;2022-07-29T12:17:29;23.80;99.90
48936;DHT22;34745;52.276;10.528;2022-07-29T12:19:59;23.80;99.90
48936;DHT22;34745;52.276;10.528;2022-07-29T12:22:30;23.80;99.90
48936;DHT22;34745;52.276;10.528;2022-07-29T12:25:01;23.80;99.90
48936;DHT22;34745;52.276;10.528;2022-07-29T12:27:58;23.90;99.90
48936;DHT22;34745;52.276;10.528;2022-07-29T12:30:39;23.90;99.90
48936;DHT22;34745;52.276;10.528;2022-07-29T12:33:13;23.90;99.90
48936;DHT22;34745;52.276;10.528;2022-07-29T12:35:42;24.00;99.90
48936;DHT22;34745;52.276;10.528;2022-07-29T12:38:14;24.10;99.90
48936;DHT22;34745;52.276;10.528;2022-07-29T12:40:42;24.30;99.90
48936;DHT22;34745;52.276;10.528;2022-07-29T12:43:11;24.50;99.90
48936;DHT22;34745;52.276;10.528;2022-07-29T12:45:39;24.60;99.90
48936;DHT22;34745;52.276;10.528;2022-07-29T12:48:07;24.50;99.90
48936;DHT22;34745;52.276;10.528;2022-07-29T12:50:52;24.40;99.90
48936;DHT22;34745;52.276;10.528;2022-07-29T12:53:20;24.40;99.90
48936;DHT22;34745;52.276;10.528;2022-07-29T12:55:48;24.30;99.90
48936;DHT22;34745;52.276;10.528;2022-07-29T12:58:32;24.30;99.90
48936;DHT22;34745;52.276;10.528;2022-07-29T13:01:08;24.30;99.90
48936;DHT22;34745;52.276;10.528;2022-07-29T13:03:48;24.50;99.90
48936;DHT22;34745;52.276;10.528;2022-07-29T13:06:41;24.70;99.90
48936;DHT22;34745;52.276;10.528;2022-07-29T13:09:16;24.80;99.90
48936;DHT22;34745;52.276;10.528;2022-07-29T13:11:45;24.90;99.90
48936;DHT22;34745;52.276;10.528;2022-07-29T13:14:30;25.00;99.90
48936;DHT22;34745;52.276;10.528;2022-07-29T13:17:05;25.20;99.90
48936;DHT22;34745;52.276;10.528;2022-07-29T13:19:34;25.20;99.90
48936;DHT22;34745;52.276;10.528;2022-07-29T13:22:03;25.30;99.90
48936;DHT22;34745;52.276;10.528;2022-07-29T13:24:30;25.30;99.90
48936;DHT22;34745;52.276;10.528;2022-07-29T13:26:56;25.40;99.90
48936;DHT22;34745;52.276;10.528;2022-07-29T13:29:24;25.50;99.90
48936;DHT22;34745;52.276;10.528;2022-07-29T13:31:57;25.50;99.90
48936;DHT22;34745;52.276;10.528;2022-07-29T13:34:25;25.50;99.90
48936;DHT22;34745;52.276;10.528;2022-07-29T13:36:52;25.60;99.90
48936;DHT22;34745;52.276;10.528;2022-07-29T13:39:20;25.50;99.90
48936;DHT22;34745;52.276;10.528;2022-07-29T13:41:47;25.40;99.90
48936;DHT22;34745;52.276;10.528;2022-07-29T13:44:14;25.40;99.90
48936;DHT22;34745;52.276;10.528;2022-07-29T13:46:41;25.30;99.90
48936;DHT22;34745;52.276;10.528;2022-07-29T13:49:09;25.30;99.90
48936;DHT22;34745;52.276;10.528;2022-07-29T13:51:37;25.30;99.90
48936;DHT22;34745;52.276;10.528;2022-07-29T13:54:04;25.30;99.90
48936;DHT22;34745;52.276;10.528;2022-07-29T13:56:33;25.30;99.90
48936;DHT22;34745;52.276;10.528;2022-07-29T13:59:00;25.20;99.90
48936;DHT22;34745;52.276;10.528;2022-07-29T14:01:27;25.20;99.90
48936;DHT22;34745;52.276;10.528;2022-07-29T14:03:54;25.10;99.90
48936;DHT22;34745;52.276;10.528;2022-07-29T14:06:21;25.10;99.90
48936;DHT22;34745;52.276;10.528;2022-07-29T14:08:48;25.10;99.90
48936;DHT22;34745;52.276;10.528;2022-07-29T14:11:15;25.10;99.90
48936;DHT22;34745;52.276;10.528;2022-07-29T14:13:44;25.10;99.90
48936;DHT22;34745;52.276;10.528;2022-07-29T14:16:11;25.10;99.90
48936;DHT22;34745;52.276;10.528;2022-07-29T14:18:39;25.20;99.90
48936;DHT22;34745;52.276;10.528;2022-07-29T14:21:06;25.20;99.90
48936;DHT22;34745;52.276;10.528;2022-07-29T14:23:33;25.30;99.90
48936;DHT22;34745;52.276;10.528;2022-07-29T14:25:59;25.30;99.90
48936;DHT22;34745;52.276;10.528;2022-07-29T14:28:28;25.20;99.90
48936;DHT22;34745;52.276;10.528;2022-07-29T14:30:56;25.30;99.90
48936;DHT22;34745;52.276;10.528;2022-07-29T14:33:23;25.30;99.90
48936;DHT22;34745;52.276;10.528;2022-07-29T14:35:50;25.40;99.90
48936;DHT22;34745;52.276;10.528;2022-07-29T14:38:17;25.50;99.90
48936;DHT22;34745;52.276;10.528;2022-07-29T14:40:46;25.60;99.90
48936;DHT22;34745;52.276;10.528;2022-07-29T14:43:16;25.80;99.90
48936;DHT22;34745;52.276;10.528;2022-07-29T14:45:43;25.80;99.90
48936;DHT22;34745;52.276;10.528;2022-07-29T14:48:12;25.80;99.90
48936;DHT22;34745;52.276;10.528;2022-07-29T14:50:39;25.80;99.90
48936;DHT22;34745;52.276;10.528;2022-07-29T14:53:06;25.80;99.90
48936;DHT22;34745;52.276;10.528;2022-07-29T14:55:33;25.70;99.90
48936;DHT22;34745;52.276;10.528;2022-07-29T14:58:00;25.60;99.90
48936;DHT22;34745;52.276;10.528;2022-07-29T15:00:37;25.50;99.90
48936;DHT22;34745;52.276;10.528;2022-07-29T15:03:05;25.40;99.90
48936;DHT22;34745;52.276;10.528;2022-07-29T15:05:38;25.30;99.90
48936;DHT22;34745;52.276;10.528;2022-07-29T15:08:05;25.30;99.90
48936;DHT22;34745;52.276;10.528;2022-07-29T15:10:34;25.20;99.90
48936;DHT22;34745;52.276;10.528;2022-07-29T15:13:01;25.20;99.90
48936;DHT22;34745;52.276;10.528;2022-07-29T15:15:28;25.10;99.90
48936;DHT22;34745;52.276;10.528;2022-07-29T15:17:55;25.00;99.90
48936;DHT22;34745;52.276;10.528;2022-07-29T15:20:22;25.00;99.90
48936;DHT22;34745;52.276;10.528;2022-07-29T15:22:53;24.90;99.90
48936;DHT22;34745;52.276;10.528;2022-07-29T15:25:22;24.90;99.90
48936;DHT22;34745;52.276;10.528;2022-07-29T15:27:50;24.90;99.90
48936;DHT22;34745;52.276;10.528;2022-07-29T15:30:20;24.80;99.90
48936;DHT22;34745;52.276;10.528;2022-07-29T15:32:59;24.80;99.90
48936;DHT22;34745;52.276;10.528;2022-07-29T15:35:26;24.70;99.90
48936;DHT22;34745;52.276;10.528;2022-07-29T15:37:55;24.70;99.90
48936;DHT22;34745;52.276;10.528;2022-07-29T15:40:22;24.70;99.90
48936;DHT22;34745;52.276;10.528;2022-07-29T15:42:49;24.70;99.90
48936;DHT22;34745;52.276;10.528;2022-07-29T15:45:16;24.60;99.90
48936;DHT22;34745;52.276;10.528;2022-07-29T15:47:43;24.60;99.90
48936;DHT22;34745;52.276;10.528;2022-07-29T15:50:10;24.60;99.90
48936;DHT22;34745;52.276;10.528;2022-07-29T15:52:42;24.60;99.90